createdAt,value
2022-11-10T00:01:55.085Z,8.30
2022-11-10T00:07:15.452Z,5.47
2022-11-10T00:12:36.027Z,5.13
2022-11-10T00:17:56.394Z,5.40
2022-11-10T00:23:16.657Z,6.15
2022-11-10T00:28:37.030Z,8.45
2022-11-10T00:33:58.339Z,6.60
2022-11-10T00:39:18.800Z,7.72
2022-11-10T00:44:39.199Z,10.15
2022-11-10T00:49:59.629Z,7.43
2022-11-10T00:55:19.741Z,8.27
2022-11-10T01:00:40.561Z,7.43
2022-11-10T01:06:09.744Z,5.18
2022-11-10T01:11:30.190Z,4.97
2022-11-10T01:16:50.253Z,5.18
2022-11-10T01:22:10.543Z,5.65
2022-11-10T01:27:31.403Z,5.30
2022-11-10T01:32:51.902Z,6.03
2022-11-10T01:38:12.235Z,6.28
2022-11-10T01:43:33.285Z,5.65
2022-11-10T01:48:59.171Z,6.63
2022-11-10T01:54:26.358Z,6.25
2022-11-10T01:59:49.179Z,6.35
2022-11-10T02:05:09.988Z,4.78
2022-11-10T02:10:30.470Z,4.82
2022-11-10T02:15:50.764Z,5.72
2022-11-10T02:21:11.276Z,6.45
2022-11-10T02:26:31.996Z,5.00
2022-11-10T02:31:52.377Z,4.45
2022-11-10T02:37:12.852Z,8.18
2022-11-10T02:42:33.221Z,8.98
2022-11-10T02:47:53.637Z,5.40
2022-11-10T02:53:14.144Z,5.20
2022-11-10T02:58:34.292Z,5.93
2022-11-10T03:03:54.580Z,6.80
2022-11-10T03:09:15.125Z,5.00
2022-11-10T03:14:35.835Z,5.53
2022-11-10T03:19:55.980Z,5.43
2022-11-10T03:25:16.320Z,7.22
2022-11-10T03:30:37.343Z,5.30
2022-11-10T03:35:57.626Z,5.82
2022-11-10T03:41:19.750Z,6.88
2022-11-10T03:46:43.366Z,6.82
2022-11-10T03:52:04.007Z,7.18
2022-11-10T03:57:24.172Z,6.30
2022-11-10T04:02:44.630Z,7.30
2022-11-10T04:08:32.658Z,5.53
2022-11-10T04:14:11.316Z,6.00
2022-11-10T04:19:31.641Z,5.07
2022-11-10T04:24:51.666Z,6.75
2022-11-10T04:30:12.216Z,6.80
2022-11-10T04:35:32.492Z,7.97
2022-11-10T04:40:53.455Z,7.20
2022-11-10T04:46:24.468Z,8.50
2022-11-10T04:51:44.693Z,10.27
2022-11-10T04:57:05.099Z,6.82
2022-11-10T05:02:25.452Z,6.35
2022-11-10T05:07:48.662Z,9.63
2022-11-10T05:13:08.834Z,11.73
2022-11-10T05:18:29.359Z,12.45
2022-11-10T05:23:49.651Z,13.63
2022-11-10T05:29:09.913Z,14.60
2022-11-10T05:34:30.346Z,12.13
2022-11-10T05:39:50.713Z,13.45
2022-11-10T05:45:11.085Z,10.77
2022-11-10T05:50:31.589Z,12.55
2022-11-10T05:55:51.937Z,19.77
2022-11-10T06:01:12.367Z,20.00
2022-11-10T06:06:32.750Z,22.95
2022-11-10T06:11:53.230Z,24.95
2022-11-10T06:17:14.480Z,19.55
2022-11-10T06:22:34.676Z,33.88
2022-11-10T06:27:55.257Z,35.58
2022-11-10T06:33:15.321Z,23.27
2022-11-10T06:38:36.089Z,19.38
2022-11-10T06:43:56.413Z,13.25
2022-11-10T06:49:16.566Z,13.00
2022-11-10T06:54:37.006Z,13.63
2022-11-10T06:59:57.217Z,14.63
2022-11-10T07:05:17.627Z,17.02
2022-11-10T07:10:38.033Z,12.02
2022-11-10T07:15:58.369Z,14.15
2022-11-10T07:21:19.098Z,13.65
2022-11-10T07:26:39.237Z,13.45
2022-11-10T07:31:59.765Z,14.85
2022-11-10T07:37:20.037Z,11.73
2022-11-10T07:42:40.779Z,11.23
2022-11-10T07:48:03.007Z,11.18
2022-11-10T07:53:23.369Z,12.10
2022-11-10T07:58:44.058Z,10.73
2022-11-10T08:04:04.554Z,13.43
2022-11-10T08:09:24.629Z,8.73
2022-11-10T08:14:44.940Z,12.80
2022-11-10T08:20:05.942Z,8.25
2022-11-10T08:25:34.190Z,10.40
2022-11-10T08:30:55.482Z,10.23
2022-11-10T08:36:16.015Z,9.40
2022-11-10T08:41:36.464Z,7.45
2022-11-10T08:46:56.841Z,12.30
2022-11-10T08:52:17.172Z,7.53
2022-11-10T08:57:37.627Z,10.38
2022-11-10T09:03:13.769Z,11.43
2022-11-10T09:08:34.289Z,10.23
2022-11-10T09:13:54.440Z,8.93
2022-11-10T09:19:19.704Z,6.22
2022-11-10T09:24:40.216Z,5.85
2022-11-10T09:30:00.488Z,6.78
2022-11-10T09:35:21.014Z,6.95
2022-11-10T09:41:06.774Z,7.75
2022-11-10T09:46:32.468Z,7.90
2022-11-10T09:51:54.071Z,8.85
2022-11-10T09:57:19.031Z,11.98
2022-11-10T10:02:56.548Z,8.90
2022-11-10T10:08:33.338Z,12.13
2022-11-10T10:14:01.352Z,8.55
2022-11-10T10:19:24.536Z,7.47
2022-11-10T10:24:44.733Z,9.68
2022-11-10T10:30:17.118Z,8.80
2022-11-10T10:35:41.825Z,7.38
2022-11-10T10:41:30.609Z,7.72
2022-11-10T10:46:55.295Z,7.75
2022-11-10T10:52:18.173Z,7.63
2022-11-10T10:57:51.417Z,10.13
2022-11-10T11:03:21.907Z,6.88
2022-11-10T11:08:59.171Z,9.18
2022-11-10T11:14:28.874Z,8.90
2022-11-10T11:19:59.917Z,7.30
2022-11-10T11:25:35.073Z,9.55
2022-11-10T11:31:19.278Z,7.03
2022-11-10T11:36:48.758Z,10.68
2022-11-10T11:42:21.165Z,7.90
2022-11-10T11:48:22.769Z,11.23
2022-11-10T11:54:01.276Z,17.10
2022-11-10T11:59:43.230Z,8.73
2022-11-10T12:05:03.596Z,8.20
2022-11-10T12:10:33.093Z,13.30
2022-11-10T12:16:01.739Z,8.25
2022-11-10T12:21:54.276Z,8.23
2022-11-10T12:27:38.246Z,9.82
2022-11-10T12:33:22.935Z,9.30
2022-11-10T12:39:05.136Z,10.20
2022-11-10T12:44:37.341Z,9.48
2022-11-10T12:50:03.842Z,8.68
2022-11-10T12:55:39.660Z,10.93
2022-11-10T13:01:06.239Z,8.40
2022-11-10T13:06:37.750Z,8.02
2022-11-10T13:12:16.738Z,8.98
2022-11-10T13:17:39.919Z,7.35
2022-11-10T13:23:00.339Z,6.75
2022-11-10T13:28:48.788Z,10.55
2022-11-10T13:34:27.022Z,7.97
2022-11-10T13:39:47.701Z,8.80
2022-11-10T13:45:29.892Z,7.82
2022-11-10T13:50:56.454Z,8.05
2022-11-10T13:56:22.855Z,7.22
2022-11-10T14:01:43.162Z,9.02
2022-11-10T14:07:13.032Z,8.20
2022-11-10T14:12:40.917Z,8.07
2022-11-10T14:18:01.443Z,6.90
2022-11-10T14:23:30.369Z,8.18
2022-11-10T14:28:50.359Z,9.85
2022-11-10T14:34:16.744Z,7.80
2022-11-10T14:39:37.385Z,7.00
2022-11-10T14:45:18.642Z,9.40
2022-11-10T14:50:41.057Z,11.38
2022-11-10T14:56:03.552Z,11.27
2022-11-10T15:01:25.202Z,8.20
2022-11-10T15:06:48.142Z,8.23
2022-11-10T15:12:19.559Z,9.30
2022-11-10T15:17:45.181Z,9.90
2022-11-10T15:23:21.625Z,7.88
2022-11-10T15:28:42.562Z,12.35
2022-11-10T15:34:05.230Z,12.13
2022-11-10T15:39:27.377Z,13.85
2022-11-10T15:44:48.421Z,12.48
2022-11-10T15:50:12.140Z,11.75
2022-11-10T15:55:34.541Z,10.32
2022-11-10T16:00:54.923Z,7.97
2022-11-10T16:06:17.101Z,7.95
2022-11-10T16:11:38.332Z,11.95
2022-11-10T16:16:58.959Z,15.43
2022-11-10T16:22:19.140Z,14.93
2022-11-10T16:27:40.593Z,20.30
2022-11-10T16:33:01.145Z,18.42
2022-11-10T16:38:39.408Z,17.58
2022-11-10T16:43:59.889Z,21.83
2022-11-10T16:49:46.769Z,14.38
2022-11-10T16:55:09.775Z,14.65
2022-11-10T17:00:30.086Z,15.05
2022-11-10T17:05:50.504Z,18.40
2022-11-10T17:11:10.921Z,11.38
2022-11-10T17:16:37.685Z,10.27
2022-11-10T17:21:58.023Z,13.77
2022-11-10T17:27:20.144Z,8.50
2022-11-10T17:33:05.698Z,21.13
2022-11-10T17:38:29.742Z,21.10
2022-11-10T17:43:50.056Z,16.60
2022-11-10T17:49:10.719Z,14.10
2022-11-10T17:54:30.864Z,16.55
2022-11-10T17:59:51.035Z,17.77
2022-11-10T18:05:16.850Z,12.05
2022-11-10T18:10:41.751Z,17.23
2022-11-10T18:16:02.141Z,17.65
2022-11-10T18:21:22.552Z,18.17
2022-11-10T18:26:43.093Z,26.35
2022-11-10T18:32:03.839Z,19.73
2022-11-10T18:37:24.437Z,21.70
2022-11-10T18:42:44.708Z,19.38
2022-11-10T18:48:05.406Z,20.35
2022-11-10T18:53:26.074Z,26.08
2022-11-10T18:58:56.190Z,25.38
2022-11-10T19:04:16.676Z,25.33
2022-11-10T19:09:37.038Z,24.50
2022-11-10T19:14:57.512Z,31.75
2022-11-10T19:20:18.234Z,23.00
2022-11-10T19:25:38.427Z,27.88
2022-11-10T19:31:03.118Z,24.30
2022-11-10T19:36:28.529Z,20.33
2022-11-10T19:41:48.669Z,19.88
2022-11-10T19:47:09.108Z,23.30
2022-11-10T19:52:29.912Z,24.73
2022-11-10T19:57:50.552Z,26.50
2022-11-10T20:03:11.500Z,20.60
2022-11-10T20:08:32.569Z,24.58
2022-11-10T20:13:56.078Z,29.30
2022-11-10T20:19:16.318Z,25.02
2022-11-10T20:24:36.906Z,29.20
2022-11-10T20:29:57.128Z,26.60
2022-11-10T20:35:17.299Z,25.33
2022-11-10T20:40:44.452Z,25.60
2022-11-10T20:46:06.676Z,26.25
2022-11-10T20:51:27.206Z,30.95
2022-11-10T20:56:47.448Z,25.25
2022-11-10T21:02:12.443Z,22.83
2022-11-10T21:07:32.701Z,23.05
2022-11-10T21:12:53.303Z,25.33
2022-11-10T21:18:13.717Z,20.27
2022-11-10T21:23:34.069Z,22.77
2022-11-10T21:28:54.684Z,20.77
2022-11-10T21:34:15.041Z,17.48
2022-11-10T21:39:35.696Z,20.67
2022-11-10T21:44:55.837Z,19.95
2022-11-10T21:50:17.591Z,16.92
2022-11-10T21:55:37.720Z,22.23
2022-11-10T22:01:04.131Z,33.17
2022-11-10T22:06:44.711Z,31.58
2022-11-10T22:12:23.236Z,29.80
2022-11-10T22:18:01.959Z,27.77
2022-11-10T22:23:41.934Z,21.67
2022-11-10T22:29:02.340Z,19.40
2022-11-10T22:34:22.701Z,19.10
2022-11-10T22:40:01.728Z,12.90
2022-11-10T22:45:21.881Z,18.10
2022-11-10T22:50:42.322Z,18.20
2022-11-10T22:56:02.678Z,17.27
2022-11-10T23:01:23.685Z,20.23
2022-11-10T23:06:44.066Z,17.98
2022-11-10T23:12:04.737Z,17.17
2022-11-10T23:17:24.799Z,19.75
2022-11-10T23:22:45.301Z,20.05
2022-11-10T23:28:05.728Z,17.00
2022-11-10T23:33:31.394Z,11.57
2022-11-10T23:38:54.578Z,11.70
2022-11-10T23:44:17.865Z,9.80
2022-11-10T23:49:38.033Z,15.18
2022-11-10T23:54:58.338Z,21.05
